Lansing, Iowa
Current Conditions -  °F | °C
As of 10:15 PM on Wednesday 28 Jan 2015 (Local Time) from KY51 Reporting Station
Overcast Overcast  
Wind Chill: 26°   Ceiling: 1100
Heat Index: 31°   Visibility: 7mi
Dew Point: 28°   Wind: 5mph
Humidity: 90%   Direction: 140°SE
Pressure: 29.77"   Gusts: NA
Location:  43.36°N, 91.22°W
Report Text: KY51 290415Z AUTO 14004KT 7SM OVC011 00/M02 A2977 RMK AO1 T10051020
Loading
Personal Weather Stations






























Interactive Weather Map New forecast layout! Learn more

10-Day Weather Forecast

Advertisements
Track Severe Weather on mobile